Time;durP1;ratioP1;P1;durP2;ratioP2;P2;SDS_P1;SDS_P2;PMS_P1;PMS_P2;Temp;Humidity;BMP_temperature;BMP_pressure;BME280_temperature;BME280_humidity;BME280_pressure;Samples;Min_cycle;Max_cycle;Signal;HPM_P1;HPM_P2
2023/03/07 00:01:38;;;;;;;5.13;2.95;;;;;;;4.66;99.62;99891.56;5032263;28;20132;-73
2023/03/07 00:04:04;;;;;;;8.15;2.55;;;;;;;4.65;99.33;99885.53;5032588;28;20214;-73
2023/03/07 00:06:29;;;;;;;7.28;3.35;;;;;;;4.67;99.46;99901.06;5030772;28;20037;-73
2023/03/07 00:09:00;;;;;;;6.28;3.00;;;;;;;4.70;99.51;99890.59;5034650;28;20045;-73
2023/03/07 00:11:25;;;;;;;8.98;3.03;;;;;;;4.70;99.45;99888.84;5032254;28;20041;-73
2023/03/07 00:13:52;;;;;;;10.20;3.55;;;;;;;4.71;99.42;99894.88;5035440;28;20041;-73
2023/03/07 00:16:20;;;;;;;6.40;2.70;;;;;;;4.74;99.62;99890.44;5034031;28;20379;-73
2023/03/07 00:18:46;;;;;;;11.25;3.45;;;;;;;4.74;99.55;99889.59;5036889;28;20029;-73
2023/03/07 00:21:14;;;;;;;8.55;3.35;;;;;;;4.74;99.38;99898.22;5036937;28;20348;-73
2023/03/07 00:23:41;;;;;;;6.17;3.23;;;;;;;4.73;99.29;99890.47;5033977;28;20026;-73
2023/03/07 00:26:13;;;;;;;6.10;3.20;;;;;;;4.73;99.48;99890.47;5035363;28;20025;-73
2023/03/07 00:28:39;;;;;;;7.78;3.47;;;;;;;4.72;99.39;99881.84;5034502;28;20046;-73
2023/03/07 00:31:07;;;;;;;9.30;3.50;;;;;;;4.75;99.51;99886.13;5039100;28;20048;-73
2023/03/07 00:33:32;;;;;;;4.95;3.08;;;;;;;4.76;99.60;99877.41;5036791;28;20033;-73
2023/03/07 00:36:00;;;;;;;6.50;3.88;;;;;;;4.77;99.78;99884.31;5038745;28;20033;-73
2023/03/07 00:38:28;;;;;;;6.30;3.35;;;;;;;4.75;99.46;99879.19;5038340;28;20060;-73
2023/03/07 00:41:08;;;;;;;7.40;3.72;;;;;;;4.76;99.38;99880.00;5036330;28;20037;-73
2023/03/07 00:43:34;;;;;;;7.13;3.42;;;;;;;4.77;99.37;99874.78;5037427;28;20348;-73
2023/03/07 00:46:00;;;;;;;6.43;3.47;;;;;;;4.78;99.24;99884.28;5037807;28;20041;-73
2023/03/07 00:48:27;;;;;;;10.30;3.70;;;;;;;4.75;98.75;99871.41;5037060;28;20111;-73
2023/03/07 00:50:53;;;;;;;13.20;4.10;;;;;;;4.76;98.59;99873.06;5037834;28;20413;-73
2023/03/07 00:53:18;;;;;;;7.63;3.88;;;;;;;4.73;97.92;99870.59;5037140;28;20450;-73
2023/03/07 00:55:58;;;;;;;7.63;3.55;;;;;;;4.75;97.93;99868.81;5038092;28;20083;-73
2023/03/07 00:58:25;;;;;;;7.78;3.53;;;;;;;4.76;98.10;99864.44;5037453;28;20040;-73
2023/03/07 01:00:51;;;;;;;8.05;4.20;;;;;;;4.77;98.14;99866.16;5038416;28;20232;-73
2023/03/07 01:03:17;;;;;;;7.15;3.55;;;;;;;4.77;97.80;99866.16;5037912;28;20057;-73
2023/03/07 01:05:42;;;;;;;5.40;3.58;;;;;;;4.74;97.38;99861.06;5038428;28;20352;-73
2023/03/07 01:08:08;;;;;;;4.13;3.65;;;;;;;4.73;96.90;99861.94;5036980;28;20046;-73
2023/03/07 01:10:33;;;;;;;8.68;3.40;;;;;;;4.74;97.06;99858.47;5037601;28;20041;-73
2023/03/07 01:12:59;;;;;;;6.00;3.72;;;;;;;4.75;97.17;99855.00;5038728;28;20403;-73
2023/03/07 01:15:26;;;;;;;7.97;3.67;;;;;;;4.71;97.08;99850.78;5037558;28;20337;-73
2023/03/07 01:17:52;;;;;;;8.68;4.00;;;;;;;4.69;97.22;99844.78;5038777;28;20433;-73
2023/03/07 01:20:18;;;;;;;5.38;3.95;;;;;;;4.69;97.37;99848.22;5037415;28;20124;-73
2023/03/07 01:22:43;;;;;;;11.15;4.47;;;;;;;4.70;97.36;99849.09;5037872;28;20396;-73
2023/03/07 01:25:10;;;;;;;5.70;3.20;;;;;;;4.71;97.44;99845.59;5038025;28;20044;-73
2023/03/07 01:27:36;;;;;;;15.15;5.07;;;;;;;4.71;97.42;99843.00;5037628;28;20118;-73
2023/03/07 01:30:01;;;;;;;7.60;4.40;;;;;;;4.72;97.68;99840.34;5038324;28;20240;-73
2023/03/07 01:32:27;;;;;;;7.90;3.70;;;;;;;4.73;97.69;99836.88;5037519;28;20037;-73
2023/03/07 01:34:52;;;;;;;4.18;3.50;;;;;;;4.75;97.95;99832.47;5036481;28;20056;-73
2023/03/07 01:37:18;;;;;;;5.00;4.30;;;;;;;4.77;97.92;99845.41;5037365;28;20025;-73
2023/03/07 01:39:43;;;;;;;11.02;4.40;;;;;;;4.76;97.50;99843.69;5037852;28;20060;-73
2023/03/07 01:42:09;;;;;;;9.27;4.22;;;;;;;4.75;97.17;99840.25;5037927;28;20288;-73
2023/03/07 01:45:20;;;;;;;7.55;4.70;;;;;;;4.75;97.29;99831.66;5036033;28;20037;-73
2023/03/07 01:47:45;;;;;;;9.70;4.00;;;;;;;4.75;97.26;99823.88;4999073;28;20053;-73
2023/03/07 01:50:16;;;;;;;7.97;3.53;;;;;;;4.76;97.31;99820.34;5037357;28;20356;-73
2023/03/07 01:52:46;;;;;;;8.02;3.70;;;;;;;4.76;97.45;99822.94;5037555;28;20068;-73
2023/03/07 01:55:21;;;;;;;7.47;3.30;;;;;;;4.78;97.75;99810.78;5037746;28;20045;-73
2023/03/07 01:57:49;;;;;;;11.68;3.55;;;;;;;4.80;97.78;99815.03;5037300;28;20276;-73
2023/03/07 02:00:24;;;;;;;9.02;3.15;;;;;;;4.80;97.79;99812.44;5036919;28;20029;-73
2023/03/07 02:02:59;;;;;;;11.77;2.80;;;;;;;4.80;97.82;99806.38;5027214;28;20042;-73
2023/03/07 02:05:31;;;;;;;4.05;2.50;;;;;;;4.80;98.03;99809.84;5038411;28;20033;-73
2023/03/07 02:08:00;;;;;;;9.85;3.30;;;;;;;4.81;98.11;99805.50;5051259;28;20071;-73
2023/03/07 02:10:26;;;;;;;11.85;2.70;;;;;;;4.78;97.83;99810.78;5037172;28;20040;-73
2023/03/07 02:12:52;;;;;;;9.23;2.35;;;;;;;4.76;97.71;99808.22;5037045;28;20037;-73
2023/03/07 02:15:18;;;;;;;10.60;2.05;;;;;;;4.76;98.05;99797.00;5036582;28;20047;-73
2023/03/07 02:17:44;;;;;;;6.15;2.10;;;;;;;4.77;98.18;99791.78;5037095;28;20051;-73
2023/03/07 02:20:38;;;;;;;3.75;1.70;;;;;;;4.81;98.54;99795.13;5037190;28;20296;-73
2023/03/07 02:23:04;;;;;;;2.25;1.52;;;;;;;4.83;98.64;99793.31;5037175;28;20313;-73
2023/03/07 02:25:50;;;;;;;10.23;1.98;;;;;;;4.85;98.71;99790.66;5036454;28;20632;-73
2023/03/07 02:28:17;;;;;;;4.75;1.48;;;;;;;4.84;98.77;99794.16;5036812;28;20096;-73
2023/03/07 02:30:57;;;;;;;8.88;1.30;;;;;;;4.81;98.79;99782.97;5036765;28;20084;-73
2023/03/07 02:33:23;;;;;;;6.13;1.15;;;;;;;4.83;98.86;99795.06;5036143;28;20091;-73
2023/03/07 02:35:54;;;;;;;3.88;1.33;;;;;;;4.82;98.87;99783.84;5035984;28;20037;-73
2023/03/07 02:38:21;;;;;;;11.18;2.00;;;;;;;4.80;98.90;99783.03;5033610;28;20043;-73
2023/03/07 02:40:47;;;;;;;6.20;1.80;;;;;;;4.80;98.82;99778.72;5036100;28;20237;-73
2023/03/07 02:43:12;;;;;;;16.48;1.98;;;;;;;4.79;98.91;99786.53;5036776;28;20328;-73
2023/03/07 02:45:38;;;;;;;9.27;1.58;;;;;;;4.78;98.91;99779.66;5035701;28;20048;-73
2023/03/07 02:48:04;;;;;;;8.55;1.65;;;;;;;4.78;98.85;99782.22;5036221;28;20053;-73
2023/03/07 02:50:29;;;;;;;8.02;1.50;;;;;;;4.78;99.16;99772.72;5035892;28;20218;-73
2023/03/07 02:52:54;;;;;;;8.65;1.90;;;;;;;4.77;99.14;99773.63;5036848;28;20034;-73
2023/03/07 02:55:20;;;;;;;6.50;2.58;;;;;;;4.78;99.07;99780.50;5035922;28;20268;-73
2023/03/07 02:57:45;;;;;;;4.90;2.22;;;;;;;4.78;99.06;99775.31;5036294;28;20220;-73
2023/03/07 03:00:11;;;;;;;9.57;2.30;;;;;;;4.78;99.17;99770.13;5036884;28;20289;-73
2023/03/07 03:02:37;;;;;;;5.43;1.60;;;;;;;4.79;99.04;99758.84;5036179;28;20083;-73
2023/03/07 03:05:03;;;;;;;7.22;2.40;;;;;;;4.78;98.85;99754.56;5034211;28;20245;-73
2023/03/07 03:07:28;;;;;;;5.68;2.30;;;;;;;4.79;98.83;99761.44;5035736;28;20041;-73
2023/03/07 03:09:54;;;;;;;7.63;1.98;;;;;;;4.83;98.97;99761.34;5035280;28;20363;-73
2023/03/07 03:12:19;;;;;;;8.48;2.50;;;;;;;4.79;98.37;99765.78;5035858;28;20307;-73
2023/03/07 03:14:45;;;;;;;7.63;2.45;;;;;;;4.75;97.58;99767.63;5036770;28;20049;-73
2023/03/07 03:17:10;;;;;;;3.45;1.92;;;;;;;4.77;97.94;99763.25;5036035;28;20344;-73
2023/03/07 03:19:36;;;;;;;4.75;2.22;;;;;;;4.80;98.39;99759.69;5035685;28;20123;-73
2023/03/07 03:22:01;;;;;;;4.03;2.40;;;;;;;4.81;98.60;99762.22;5036673;28;20104;-73
2023/03/07 03:24:27;;;;;;;3.28;2.28;;;;;;;4.84;98.79;99761.28;5036098;28;20097;-73
2023/03/07 03:26:55;;;;;;;2.75;2.05;;;;;;;4.86;98.83;99758.63;5036081;28;20057;-73
2023/03/07 03:29:21;;;;;;;3.55;2.13;;;;;;;4.87;98.89;99750.78;5035941;28;20031;-73
2023/03/07 03:31:46;;;;;;;2.58;2.20;;;;;;;4.88;99.07;99757.69;5036429;28;20057;-73
2023/03/07 03:34:12;;;;;;;5.25;2.85;;;;;;;4.87;98.70;99745.59;5036069;28;20236;-73
2023/03/07 03:36:37;;;;;;;3.95;3.25;;;;;;;4.87;98.78;99752.53;5035007;28;20029;-73
2023/03/07 03:39:05;;;;;;;8.57;3.33;;;;;;;4.78;96.18;99741.59;5035739;28;20033;-73
2023/03/07 03:41:31;;;;;;;8.45;3.35;;;;;;;4.72;94.72;99741.78;5035063;28;20260;-73
2023/03/07 03:43:56;;;;;;;3.72;3.35;;;;;;;4.68;94.73;99744.56;5036449;28;20033;-73
2023/03/07 03:46:22;;;;;;;5.15;3.67;;;;;;;4.65;94.53;99749.84;5036630;28;20041;-73
2023/03/07 03:48:54;;;;;;;11.20;4.50;;;;;;;4.62;94.99;99750.81;5040081;28;20061;-73
2023/03/07 03:51:21;;;;;;;5.70;4.35;;;;;;;4.57;94.68;99739.72;5039228;28;20104;-73
2023/03/07 03:53:47;;;;;;;10.02;4.22;;;;;;;4.52;94.74;99736.44;5038230;28;20037;-73
2023/03/07 03:56:18;;;;;;;6.50;4.68;;;;;;;4.49;95.07;99739.13;5039635;28;20068;-73
2023/03/07 03:58:46;;;;;;;6.15;3.95;;;;;;;4.51;95.57;99743.38;5040026;28;20025;-73
2023/03/07 04:01:12;;;;;;;7.82;4.20;;;;;;;4.53;96.29;99739.00;5039892;28;20033;-73
2023/03/07 04:03:40;;;;;;;12.60;5.07;;;;;;;4.41;94.17;99742.81;5038865;28;20091;-73
2023/03/07 04:06:09;;;;;;;9.50;4.05;;;;;;;4.32;94.23;99745.72;5039199;28;20388;-73
2023/03/07 04:08:36;;;;;;;7.07;4.72;;;;;;;4.23;94.64;99752.03;5037845;28;20046;-73
2023/03/07 04:11:03;;;;;;;5.63;3.90;;;;;;;4.17;95.10;99741.03;5039143;28;20037;-73
2023/03/07 04:13:29;;;;;;;5.65;4.13;;;;;;;4.18;95.65;99742.72;5038706;28;20041;-73
2023/03/07 04:15:55;;;;;;;5.28;3.53;;;;;;;4.22;96.07;99733.94;5037184;28;20038;-73
2023/03/07 04:18:21;;;;;;;4.47;3.85;;;;;;;4.28;96.57;99738.09;5038899;28;20040;-73
2023/03/07 04:20:48;;;;;;;5.65;3.65;;;;;;;4.33;96.70;99733.59;5039412;28;20244;-73
2023/03/07 04:23:14;;;;;;;6.65;3.95;;;;;;;4.36;96.91;99731.75;5039480;28;20053;-73
2023/03/07 04:25:39;;;;;;;5.10;4.00;;;;;;;4.36;96.76;99736.09;5038901;28;20108;-73
2023/03/07 04:28:05;;;;;;;4.10;3.80;;;;;;;4.38;97.03;99729.09;5038755;28;20357;-73
2023/03/07 04:30:30;;;;;;;3.92;3.13;;;;;;;4.41;97.17;99732.44;5038756;28;20105;-73
2023/03/07 04:32:56;;;;;;;3.30;3.00;;;;;;;4.45;97.41;99728.00;5039060;28;20206;-73
2023/03/07 04:35:21;;;;;;;3.75;3.13;;;;;;;4.49;97.61;99720.97;5038615;28;20069;-73
2023/03/07 04:37:47;;;;;;;3.42;3.03;;;;;;;4.52;97.81;99724.31;5039423;28;20037;-73
2023/03/07 04:40:12;;;;;;;5.63;3.40;;;;;;;4.56;97.96;99718.13;5038914;28;20045;-73
2023/03/07 04:42:38;;;;;;;3.00;2.80;;;;;;;4.57;97.90;99719.81;5038213;28;20109;-73
2023/03/07 04:45:03;;;;;;;5.85;3.03;;;;;;;4.58;98.00;99712.88;5038705;28;20131;-73
2023/03/07 04:47:29;;;;;;;3.33;2.17;;;;;;;4.58;98.07;99708.56;5038419;28;20048;-73
2023/03/07 04:49:54;;;;;;;2.83;1.80;;;;;;;4.56;97.78;99696.53;5038126;28;20053;-73
2023/03/07 04:52:19;;;;;;;4.10;2.08;;;;;;;4.53;97.66;99700.09;5038325;28;20049;-73
2023/03/07 04:54:45;;;;;;;3.10;1.30;;;;;;;4.53;97.89;99710.47;5038843;28;20040;-73
2023/03/07 04:57:10;;;;;;;1.75;1.40;;;;;;;4.52;97.97;99711.34;5038619;28;20146;-73
2023/03/07 04:59:38;;;;;;;3.50;1.30;;;;;;;4.53;98.33;99707.88;5037489;28;20025;-73
2023/03/07 05:02:07;;;;;;;4.63;1.02;;;;;;;4.51;98.02;99711.41;5038662;28;20037;-73
2023/03/07 05:04:33;;;;;;;3.97;1.13;;;;;;;4.45;96.77;99715.03;5037814;28;20072;-73
2023/03/07 05:06:58;;;;;;;3.30;1.25;;;;;;;4.38;96.33;99726.50;5038661;28;20038;-73
2023/03/07 05:09:24;;;;;;;4.32;0.90;;;;;;;4.33;96.47;99718.03;5037978;28;20029;-73
2023/03/07 05:11:49;;;;;;;3.05;0.55;;;;;;;4.31;96.59;99723.28;5038056;28;20395;-73
2023/03/07 05:14:15;;;;;;;6.00;0.73;;;;;;;4.29;96.84;99722.47;5037881;28;20254;-73
2023/03/07 05:16:40;;;;;;;6.90;0.85;;;;;;;4.23;96.61;99727.88;5038172;28;20053;-73
2023/03/07 05:19:07;;;;;;;1.38;0.50;;;;;;;4.20;96.03;99730.53;5038519;28;20041;-73
2023/03/07 05:21:32;;;;;;;1.27;0.52;;;;;;;4.20;96.53;99722.78;5037630;28;20120;-73
2023/03/07 05:23:58;;;;;;;3.28;0.52;;;;;;;4.21;96.80;99721.88;5037812;28;20037;-73
2023/03/07 05:26:23;;;;;;;2.90;0.50;;;;;;;4.20;96.73;99723.66;5037361;28;20037;-73
2023/03/07 05:28:49;;;;;;;2.83;0.50;;;;;;;4.22;97.00;99728.75;5037917;28;20048;-73
2023/03/07 05:31:14;;;;;;;2.22;0.90;;;;;;;4.22;97.07;99724.44;5036993;28;20048;-74
2023/03/07 05:33:41;;;;;;;4.13;0.93;;;;;;;4.16;96.19;99727.22;5037524;28;20041;-74
2023/03/07 05:36:07;;;;;;;1.23;0.65;;;;;;;4.13;96.00;99731.63;5037880;28;20340;-73
2023/03/07 05:38:33;;;;;;;1.42;0.60;;;;;;;4.09;96.28;99730.06;5037000;28;20273;-73
2023/03/07 05:40:58;;;;;;;2.08;0.57;;;;;;;4.07;96.54;99730.09;5037855;28;20079;-73
2023/03/07 05:43:24;;;;;;;2.08;0.38;;;;;;;4.05;96.67;99729.28;5037101;28;20048;-73
2023/03/07 05:45:49;;;;;;;3.03;0.63;;;;;;;4.04;96.43;99732.81;5037409;28;20029;-74
2023/03/07 05:48:14;;;;;;;2.63;0.50;;;;;;;4.01;96.31;99741.50;5037654;28;20025;-74
2023/03/07 05:50:41;;;;;;;2.03;0.57;;;;;;;3.98;96.10;99741.63;5037398;28;20057;-74
2023/03/07 05:53:07;;;;;;;2.78;0.68;;;;;;;3.96;95.73;99745.13;5038127;28;20032;-74
2023/03/07 05:55:33;;;;;;;1.73;0.55;;;;;;;3.90;95.55;99734.97;5037131;28;20041;-74
2023/03/07 05:57:59;;;;;;;3.75;0.60;;;;;;;3.87;95.58;99740.22;5037299;28;20413;-74
2023/03/07 06:00:24;;;;;;;1.85;0.40;;;;;;;3.86;95.89;99736.81;5036731;28;20037;-74
2023/03/07 06:02:50;;;;;;;3.50;0.65;;;;;;;3.88;96.23;99736.75;5037703;28;20048;-74
2023/03/07 06:05:18;;;;;;;0.73;0.50;;;;;;;3.87;96.32;99741.06;5036932;28;20135;-74
2023/03/07 06:07:44;;;;;;;1.52;0.55;;;;;;;3.87;96.27;99746.25;5037345;28;20037;-74
2023/03/07 06:10:11;;;;;;;1.23;0.47;;;;;;;3.86;96.23;99744.56;5036218;28;20107;-74
2023/03/07 06:12:36;;;;;;;2.05;0.60;;;;;;;3.86;96.25;99744.56;5034671;28;20037;-74
2023/03/07 06:15:02;;;;;;;1.17;0.50;;;;;;;3.87;96.32;99742.81;5037207;28;20063;-74
2023/03/07 06:17:28;;;;;;;1.45;0.55;;;;;;;3.87;96.46;99741.06;5036820;28;20092;-74
2023/03/07 06:19:53;;;;;;;1.90;0.50;;;;;;;3.87;96.27;99750.59;5037263;28;20045;-74
2023/03/07 06:22:19;;;;;;;0.65;0.50;;;;;;;3.80;95.72;99749.94;5036738;28;20041;-74
2023/03/07 06:24:44;;;;;;;0.82;0.45;;;;;;;3.75;95.35;99752.66;5036457;28;20040;-74
2023/03/07 06:27:10;;;;;;;1.05;0.45;;;;;;;3.72;95.22;99746.72;5036762;28;20041;-74
2023/03/07 06:29:35;;;;;;;0.82;0.40;;;;;;;3.60;93.76;99746.22;5036508;28;20213;-73
2023/03/07 06:32:01;;;;;;;1.95;0.60;;;;;;;3.58;94.46;99749.72;5027661;28;20037;-73
2023/03/07 06:34:26;;;;;;;1.02;0.63;;;;;;;3.57;94.91;99741.13;5035008;28;20041;-74
2023/03/07 06:36:52;;;;;;;0.63;0.50;;;;;;;3.56;95.21;99752.34;5036337;28;20033;-74
2023/03/07 06:39:20;;;;;;;1.70;0.68;;;;;;;3.56;95.49;99749.75;5036118;28;20025;-74
2023/03/07 06:41:49;;;;;;;1.17;0.40;;;;;;;3.58;95.61;99753.16;5035353;28;20045;-74
2023/03/07 06:44:16;;;;;;;1.27;0.60;;;;;;;3.56;95.42;99746.31;5036084;28;20064;-74
2023/03/07 06:46:43;;;;;;;0.63;0.40;;;;;;;3.54;95.36;99741.19;5036413;28;20314;-74
2023/03/07 06:49:08;;;;;;;0.30;0.30;;;;;;;3.56;95.67;99742.00;5036766;28;20029;-73
2023/03/07 06:51:33;;;;;;;0.47;0.38;;;;;;;3.58;95.94;99744.53;5034613;28;20634;-73
2023/03/07 06:53:59;;;;;;;2.25;0.40;;;;;;;3.59;95.85;99748.84;5036576;28;20091;-73
2023/03/07 06:56:26;;;;;;;1.30;0.50;;;;;;;3.59;95.80;99741.91;5035822;28;20044;-73
2023/03/07 06:58:51;;;;;;;1.20;0.38;;;;;;;3.60;95.94;99747.94;5033959;28;20026;-74
2023/03/07 07:01:19;;;;;;;0.95;0.40;;;;;;;3.58;95.79;99734.19;5036082;28;20233;-74
2023/03/07 07:03:44;;;;;;;2.10;0.82;;;;;;;3.55;96.01;99737.72;5036567;28;20040;-74
2023/03/07 07:06:10;;;;;;;2.72;0.35;;;;;;;3.55;95.96;99739.47;5036425;28;20113;-74
2023/03/07 07:08:35;;;;;;;0.40;0.30;;;;;;;3.51;95.70;99741.31;5036464;28;20033;-74
2023/03/07 07:11:01;;;;;;;1.05;0.40;;;;;;;3.52;95.72;99747.31;5036595;28;20045;-74
2023/03/07 07:13:26;;;;;;;0.90;0.30;;;;;;;3.51;95.62;99745.63;5035576;28;20037;-74
2023/03/07 07:15:52;;;;;;;2.50;0.40;;;;;;;3.51;95.98;99743.91;5036030;28;20044;-73
2023/03/07 07:18:17;;;;;;;2.03;0.35;;;;;;;3.50;96.02;99747.38;5035616;28;20045;-73
2023/03/07 07:20:43;;;;;;;0.80;0.50;;;;;;;3.52;96.12;99749.91;5035849;28;20037;-73
2023/03/07 07:23:08;;;;;;;3.00;0.50;;;;;;;3.49;95.79;99752.56;5040372;28;20249;-73
2023/03/07 07:25:34;;;;;;;0.93;0.40;;;;;;;3.48;95.88;99761.25;5039130;28;20052;-73
2023/03/07 07:27:59;;;;;;;3.30;0.70;;;;;;;3.42;95.21;99770.00;5038506;28;20401;-73
2023/03/07 07:30:24;;;;;;;1.58;0.40;;;;;;;3.33;94.51;99770.28;5036265;28;20048;-73
2023/03/07 07:32:50;;;;;;;0.77;0.30;;;;;;;3.31;94.97;99769.47;5036362;28;20037;-73
2023/03/07 07:35:15;;;;;;;0.60;0.45;;;;;;;3.30;95.38;99766.03;5037798;28;20092;-73
2023/03/07 07:37:40;;;;;;;0.47;0.40;;;;;;;3.30;95.65;99767.78;5038100;28;20038;-73
2023/03/07 07:40:09;;;;;;;0.85;0.50;;;;;;;3.24;95.08;99772.25;5038339;28;20045;-74
2023/03/07 07:42:34;;;;;;;0.77;0.50;;;;;;;3.25;95.29;99784.28;5037422;28;20064;-74
2023/03/07 07:45:00;;;;;;;0.65;0.40;;;;;;;3.29;95.67;99779.03;5038552;28;20021;-74
2023/03/07 07:47:25;;;;;;;0.43;0.30;;;;;;;3.33;96.14;99790.97;5038516;28;20045;-74
2023/03/07 07:49:51;;;;;;;0.68;0.38;;;;;;;3.37;96.35;99782.25;5039810;28;20041;-74
2023/03/07 07:52:16;;;;;;;0.47;0.30;;;;;;;3.41;96.49;99789.88;5039528;28;20291;-74
2023/03/07 07:54:42;;;;;;;1.27;0.50;;;;;;;3.43;96.45;99793.28;5038261;28;20124;-74
2023/03/07 07:57:07;;;;;;;0.32;0.30;;;;;;;3.45;96.57;99798.41;5039505;28;20041;-74
2023/03/07 07:59:33;;;;;;;0.95;0.40;;;;;;;3.42;96.50;99793.31;5039659;28;20044;-74
2023/03/07 08:01:59;;;;;;;1.17;0.40;;;;;;;3.40;96.25;99789.91;5040582;28;20044;-74
2023/03/07 08:04:24;;;;;;;0.75;0.50;;;;;;;3.38;96.19;99795.13;5039665;28;20033;-74
2023/03/07 08:06:51;;;;;;;1.38;0.30;;;;;;;3.39;96.35;99802.03;5040219;28;20041;-74
2023/03/07 08:09:16;;;;;;;0.70;0.50;;;;;;;3.41;96.58;99796.81;5039989;28;20047;-74
2023/03/07 08:11:42;;;;;;;1.33;0.40;;;;;;;3.40;96.67;99790.78;5038067;28;20037;-74
2023/03/07 08:14:08;;;;;;;0.82;0.40;;;;;;;3.40;96.58;99795.09;5038943;28;20053;-74
2023/03/07 08:16:33;;;;;;;1.15;0.30;;;;;;;3.40;96.72;99798.56;5039406;28;20405;-74
2023/03/07 08:18:59;;;;;;;0.75;0.50;;;;;;;3.40;96.82;99793.38;5039821;28;20076;-74
2023/03/07 08:21:25;;;;;;;2.45;0.52;;;;;;;3.42;96.85;99795.91;5039458;28;20356;-74
2023/03/07 08:23:52;;;;;;;0.55;0.30;;;;;;;3.45;97.03;99791.47;5039166;28;20060;-74
2023/03/07 08:26:18;;;;;;;1.63;0.45;;;;;;;3.47;97.49;99786.25;5037816;28;20321;-74
2023/03/07 08:28:43;;;;;;;0.55;0.30;;;;;;;3.50;97.33;99786.19;5037809;28;20040;-74
2023/03/07 08:31:17;;;;;;;0.65;0.43;;;;;;;3.52;97.40;99773.22;5037495;28;20333;-74
2023/03/07 08:33:45;;;;;;;0.40;0.40;;;;;;;3.52;97.46;99773.22;5031431;28;20048;-74
2023/03/07 08:36:11;;;;;;;0.30;0.30;;;;;;;3.53;97.59;99778.34;5037339;28;20036;-74
2023/03/07 08:38:37;;;;;;;2.63;0.60;;;;;;;3.56;97.36;99777.41;5025911;28;20029;-73
2023/03/07 08:41:04;;;;;;;4.32;0.63;;;;;;;3.52;97.51;99784.41;5030822;28;20105;-73
2023/03/07 08:43:32;;;;;;;2.53;0.57;;;;;;;3.50;97.30;99778.44;5028693;28;20382;-73
2023/03/07 08:45:58;;;;;;;0.50;0.45;;;;;;;3.49;97.40;99775.88;5037536;28;20029;-73
2023/03/07 08:48:24;;;;;;;2.45;0.70;;;;;;;3.45;97.16;99780.28;5034915;28;20065;-73
2023/03/07 08:50:49;;;;;;;0.93;0.82;;;;;;;3.43;96.94;99779.50;5032708;28;20255;-73
2023/03/07 08:53:15;;;;;;;5.72;0.98;;;;;;;3.43;97.22;99782.06;5036736;28;20132;-74
2023/03/07 08:55:42;;;;;;;1.70;0.68;;;;;;;3.38;96.82;99783.94;5036616;28;20041;-74
2023/03/07 08:58:08;;;;;;;3.35;0.73;;;;;;;3.36;97.04;99777.97;5036020;28;20045;-74
2023/03/07 09:00:33;;;;;;;2.05;0.80;;;;;;;3.38;97.55;99776.19;5034752;28;20063;-73
2023/03/07 09:03:00;;;;;;;0.50;0.50;;;;;;;3.38;97.88;99769.25;5034417;28;20400;-73
2023/03/07 09:05:26;;;;;;;1.42;0.90;;;;;;;3.42;98.12;99785.53;5035375;28;20060;-73
2023/03/07 09:07:52;;;;;;;3.28;0.80;;;;;;;3.46;98.25;99784.59;5032348;28;20395;-73
2023/03/07 09:10:19;;;;;;;0.95;0.50;;;;;;;3.48;98.36;99781.97;5034052;28;20061;-73
2023/03/07 09:12:45;;;;;;;0.90;0.50;;;;;;;3.46;98.00;99793.19;5033817;28;20039;-73
2023/03/07 09:15:11;;;;;;;2.60;0.50;;;;;;;3.43;97.68;99782.06;5035860;28;20104;-73
2023/03/07 09:17:36;;;;;;;1.60;0.63;;;;;;;3.44;97.65;99781.19;5031774;28;20089;-73
2023/03/07 09:20:03;;;;;;;2.15;0.60;;;;;;;3.43;97.86;99788.09;5032654;28;20344;-73
2023/03/07 09:22:28;;;;;;;0.73;0.35;;;;;;;3.48;98.24;99792.31;5032404;28;20052;-73
2023/03/07 09:24:54;;;;;;;1.30;0.40;;;;;;;3.53;98.34;99795.59;5032147;28;20038;-73
2023/03/07 09:27:20;;;;;;;1.02;0.60;;;;;;;3.55;98.49;99791.25;5031443;28;20393;-73
2023/03/07 09:29:46;;;;;;;1.35;0.60;;;;;;;3.55;98.28;99786.06;5033777;28;20037;-73
2023/03/07 09:32:11;;;;;;;3.15;0.57;;;;;;;3.54;97.81;99792.13;5033848;28;20138;-73
2023/03/07 09:34:37;;;;;;;1.17;0.50;;;;;;;3.53;97.90;99793.88;5033079;28;20041;-73
2023/03/07 09:37:02;;;;;;;2.38;0.65;;;;;;;3.52;97.77;99788.75;5034245;28;20025;-74
2023/03/07 09:39:28;;;;;;;1.55;0.30;;;;;;;3.52;97.94;99793.91;5031406;28;20053;-73
2023/03/07 09:42:10;;;;;;;2.90;0.60;;;;;;;3.51;97.54;99794.78;5033829;28;20407;-73
2023/03/07 09:44:57;;;;;;;3.83;0.70;;;;;;;3.42;96.41;99794.19;5034440;28;20041;-73
2023/03/07 09:47:28;;;;;;;2.78;0.50;;;;;;;3.43;96.53;99790.69;5033011;28;20140;-73
2023/03/07 09:49:54;;;;;;;1.60;0.50;;;;;;;3.45;96.90;99793.22;5034848;28;20045;-74
2023/03/07 09:52:23;;;;;;;3.03;0.63;;;;;;;3.50;97.44;99793.13;5034002;28;20065;-73
2023/03/07 09:54:56;;;;;;;1.50;0.50;;;;;;;3.54;97.42;99789.53;5037448;28;20071;-74
2023/03/07 09:57:36;;;;;;;2.47;0.50;;;;;;;3.54;97.00;99792.13;5033061;28;20026;-73
2023/03/07 10:00:27;;;;;;;1.00;0.43;;;;;;;3.58;97.18;99786.81;5035140;28;20248;-73
2023/03/07 10:03:27;;;;;;;2.75;0.65;;;;;;;3.59;96.74;99790.25;5025389;28;20049;-73
2023/03/07 10:05:58;;;;;;;1.75;0.50;;;;;;;3.54;95.85;99792.13;5035375;28;20120;-73
2023/03/07 10:08:32;;;;;;;6.95;1.15;;;;;;;3.43;93.19;99798.44;5034460;28;20044;-73
2023/03/07 10:11:23;;;;;;;1.33;0.40;;;;;;;3.44;94.33;99789.81;5035093;28;20052;-73
2023/03/07 10:14:00;;;;;;;3.88;1.05;;;;;;;3.42;94.05;99783.81;5030086;28;20056;-73
2023/03/07 10:16:34;;;;;;;2.53;0.50;;;;;;;3.42;94.24;99786.41;5035411;28;20040;-73
2023/03/07 10:19:16;;;;;;;0.65;0.30;;;;;;;3.38;93.75;99784.78;5035668;28;20093;-73
2023/03/07 10:21:48;;;;;;;5.60;0.60;;;;;;;3.32;93.39;99790.13;5035196;28;20068;-74
2023/03/07 10:24:20;;;;;;;4.53;0.63;;;;;;;3.31;93.54;99804.00;5034094;28;20044;-74
2023/03/07 10:26:58;;;;;;;0.55;0.40;;;;;;;3.22;93.25;99799.91;5034838;28;20109;-73
2023/03/07 10:29:28;;;;;;;1.08;0.55;;;;;;;3.20;93.64;99796.50;5033936;28;20041;-73
2023/03/07 10:32:02;;;;;;;0.93;0.60;;;;;;;3.24;94.49;99800.72;5036462;28;20033;-73
2023/03/07 10:34:29;;;;;;;2.67;0.47;;;;;;;3.30;94.93;99802.28;5034880;28;20045;-73
2023/03/07 10:37:07;;;;;;;1.63;0.55;;;;;;;3.33;95.19;99802.19;5036158;28;20241;-73
2023/03/07 10:39:38;;;;;;;0.38;0.30;;;;;;;3.37;95.56;99808.16;5034793;28;20044;-73
2023/03/07 10:42:04;;;;;;;1.02;0.50;;;;;;;3.42;95.78;99803.66;5035988;28;20033;-74
2023/03/07 10:44:32;;;;;;;0.65;0.40;;;;;;;3.45;95.95;99808.75;5035689;28;20044;-74
2023/03/07 10:46:59;;;;;;;2.90;0.40;;;;;;;3.46;96.02;99806.13;5036109;28;20108;-74
2023/03/07 10:49:28;;;;;;;2.03;0.55;;;;;;;3.46;96.12;99810.47;5033890;28;20068;-73
2023/03/07 10:52:15;;;;;;;2.83;0.40;;;;;;;3.45;96.16;99814.78;5036523;28;20053;-74
2023/03/07 10:54:41;;;;;;;0.88;0.30;;;;;;;3.46;96.44;99808.72;5031696;28;20049;-73
2023/03/07 10:57:15;;;;;;;1.50;0.50;;;;;;;3.46;96.43;99800.97;5034499;28;20033;-74
2023/03/07 10:59:48;;;;;;;3.30;0.82;;;;;;;3.47;96.64;99804.38;5034436;28;20257;-73
2023/03/07 11:02:43;;;;;;;3.35;0.45;;;;;;;3.47;96.91;99809.56;5033841;28;20110;-73
2023/03/07 11:05:33;;;;;;;2.05;0.40;;;;;;;3.49;97.00;99812.97;5032883;28;20029;-73
2023/03/07 11:07:59;;;;;;;1.63;0.57;;;;;;;3.51;97.26;99807.75;5034337;28;20104;-73
2023/03/07 11:10:35;;;;;;;2.40;0.65;;;;;;;3.53;97.32;99803.38;5034403;28;20048;-73
2023/03/07 11:13:14;;;;;;;3.08;0.60;;;;;;;3.52;97.34;99806.88;5033491;28;20286;-73
2023/03/07 11:15:39;;;;;;;0.88;0.55;;;;;;;3.49;97.15;99810.38;5032096;28;20323;-73
2023/03/07 11:18:24;;;;;;;0.82;0.50;;;;;;;3.52;97.40;99809.44;5036052;28;20048;-73
2023/03/07 11:20:50;;;;;;;0.93;0.65;;;;;;;3.54;97.69;99807.66;5025219;28;20096;-73
2023/03/07 11:23:18;;;;;;;0.98;0.52;;;;;;;3.55;97.58;99809.38;5028789;28;20459;-73
2023/03/07 11:25:44;;;;;;;0.50;0.30;;;;;;;3.52;97.12;99815.47;5031203;28;20036;-73
2023/03/07 11:28:29;;;;;;;2.45;0.52;;;;;;;3.52;97.41;99812.03;5032548;28;20349;-73
2023/03/07 11:31:00;;;;;;;1.02;0.52;;;;;;;3.52;97.65;99810.28;5033268;28;20041;-73
2023/03/07 11:33:33;;;;;;;4.45;0.98;;;;;;;3.48;96.84;99810.44;5033423;28;20041;-73
2023/03/07 11:36:01;;;;;;;1.27;0.60;;;;;;;3.44;96.76;99815.69;5033374;28;20050;-73
2023/03/07 11:38:57;;;;;;;2.25;0.52;;;;;;;3.41;97.11;99812.34;5034374;28;20264;-73
2023/03/07 11:41:37;;;;;;;2.28;0.57;;;;;;;3.37;97.04;99819.34;5032996;28;20317;-73
2023/03/07 11:44:25;;;;;;;3.03;0.65;;;;;;;3.31;97.12;99813.47;5034210;28;20087;-73
2023/03/07 11:47:01;;;;;;;0.73;0.50;;;;;;;3.32;97.70;99810.84;5033319;28;20108;-73